Otisville, NY (10963)

2:36 PM EDT on June 25, 2017 (GMT -0400)
Karen Joy Drive | | Change Station

Elev 791 ft 41.50 °N, 74.49 °W | Updated 13 seconds ago

Mostly Cloudy
Mostly Cloudy
79.7 °F
Feels Like 80 °F
N
0.0
Wind Variable Wind from East
Gusts 0.0 mph

Today
High -- | Low -- °F
--% Chance of Precip.
Yesterday
High -- | Low -- °F
Precip. -- in
Pressure 29.95 in
Visibility 10.0 miles
Clouds Scattered Clouds 5000 ft
Mostly Cloudy 6000 ft
Mostly Cloudy 11000 ft
Heat Index 80 °F
Dew Point 54 °F
Humidity 41%
Rainfall 0.00 in
Snow Depth Not available.
5:25 AM 8:35 PM
Waxing Crescent, 4% visible
METAR KMGJ 251754Z AUTO 32014G21KT 10SM SCT050 BKN060 BKN110 24/10 A2996 RMK AO2 SLP141 T02390100 10272 20200 56007 TSNO
Pressure 29.95 in
Visibility 10.0 miles
Clouds Scattered Clouds 5000 ft
Mostly Cloudy 6000 ft
Mostly Cloudy 11000 ft
Heat Index 80 °F
Dew Point 54 °F
Humidity 41%
Rainfall 0.00 in
Snow Depth Not available.
5:25 AM 8:35 PM
Waxing Crescent, 4% visible
METAR KMGJ 251754Z AUTO 32014G21KT 10SM SCT050 BKN060 BKN110 24/10 A2996 RMK AO2 SLP141 T02390100 10272 20200 56007 TSNO

Get Severe Weather Alerts

Thanks for signing up!

Be on the lookout for a verification email in your inbox.

You'll start receiving the daily forecast at 6 AM.

×

10-Day Weather Forecast

Almanac

Astronomy

Jun. 25, 2017 Rise Set
Actual Time
Civil Twilight
Nautical Twilight
Astronomical Twilight
Moon
Length of Visible Light
Length of Day
Tomorrow will be .
, % of the Moon is Illuminated

Today's Extremes

State Highs State Lows

Community

WunderPhotos

Category 6

Welcome to Category 6. This is the collective home for Weather Underground's featured writeups by Dr. Jeff Masters (right), Bob Henson (left), Chris Burt, and other regular contributors.

Nearby

Air Quality

  Air Quality AQ Index Pollutant
Not available.

Snow Depth

Station Depth Elevation

Earthquake Activity

City Distance Mag. Time & Date
Minimum magnitude displayed is 2.5.

Coastal Water Temperatures

Place Temperature

Stations

Nearby Weather Stations

Station Location Temp. Windchill Dew Point Humidity Wind Precip. Elev Updated Type
                   

Watches & Warnings

There are currently no watches in effect.